createdAt,value
2023-04-29T00:01:04.638Z,8.33
2023-04-29T00:03:08.859Z,8.24
2023-04-29T00:05:12.228Z,8.36
2023-04-29T00:07:18.262Z,8.42
2023-04-29T00:09:22.274Z,8.49
2023-04-29T00:11:25.389Z,8.53
2023-04-29T00:13:28.245Z,8.56
2023-04-29T00:15:32.668Z,8.61
2023-04-29T00:17:35.997Z,8.65
2023-04-29T00:19:38.984Z,8.67
2023-04-29T00:21:41.920Z,8.71
2023-04-29T00:23:44.968Z,8.73
2023-04-29T00:25:47.916Z,8.75
2023-04-29T00:27:50.785Z,8.78
2023-04-29T00:29:54.948Z,8.80
2023-04-29T00:31:59.480Z,8.76
2023-04-29T00:34:02.348Z,8.72
2023-04-29T00:36:06.100Z,8.80
2023-04-29T00:38:09.333Z,8.82
2023-04-29T00:40:15.405Z,8.84
2023-04-29T00:42:18.831Z,8.88
2023-04-29T00:44:21.920Z,8.76
2023-04-29T00:46:25.046Z,8.65
2023-04-29T00:48:29.607Z,8.68
2023-04-29T00:50:32.639Z,8.74
2023-04-29T00:52:36.326Z,8.76
2023-04-29T00:54:39.817Z,8.70
2023-04-29T00:56:45.989Z,8.56
2023-04-29T00:58:50.660Z,8.43
2023-04-29T01:00:55.990Z,8.33
2023-04-29T01:03:00.134Z,8.41
2023-04-29T01:05:04.955Z,8.40
2023-04-29T01:07:15.947Z,8.42
2023-04-29T01:09:29.980Z,8.44
2023-04-29T01:11:40.547Z,8.38
2023-04-29T01:13:46.699Z,8.38
2023-04-29T01:15:59.241Z,8.34
2023-04-29T01:18:10.760Z,8.48
2023-04-29T01:20:16.840Z,8.44
2023-04-29T01:22:21.970Z,8.41
2023-04-29T01:24:26.620Z,8.40
2023-04-29T01:26:33.606Z,8.46
2023-04-29T01:28:51.002Z,8.29
2023-04-29T01:31:01.470Z,8.13
2023-04-29T01:33:15.273Z,8.11
2023-04-29T01:35:30.748Z,8.12
2023-04-29T01:37:42.944Z,8.20
2023-04-29T01:40:05.768Z,8.33
2023-04-29T01:42:21.699Z,8.35
2023-04-29T01:44:30.097Z,8.40
2023-04-29T01:46:33.857Z,8.36
2023-04-29T01:48:38.393Z,8.42
2023-04-29T01:50:41.520Z,8.47
2023-04-29T01:52:48.259Z,8.49
2023-04-29T01:54:52.669Z,8.56
2023-04-29T01:56:56.408Z,8.65
2023-04-29T01:59:05.361Z,8.70
2023-04-29T02:01:28.440Z,8.79
2023-04-29T02:03:31.776Z,8.87
2023-04-29T02:05:38.507Z,8.88
2023-04-29T02:07:42.837Z,8.94
2023-04-29T02:09:45.825Z,8.97
2023-04-29T02:11:50.238Z,9.02
2023-04-29T02:13:55.101Z,9.02
2023-04-29T02:15:58.368Z,8.97
2023-04-29T02:18:01.727Z,8.92
2023-04-29T02:20:05.314Z,8.95
2023-04-29T02:22:08.363Z,8.94
2023-04-29T02:24:11.303Z,8.80
2023-04-29T02:26:15.722Z,8.71
2023-04-29T02:28:20.052Z,8.78
2023-04-29T02:30:23.044Z,8.79
2023-04-29T02:32:26.189Z,8.81
2023-04-29T02:34:29.818Z,8.73
2023-04-29T02:36:33.424Z,8.68
2023-04-29T02:38:36.322Z,8.58
2023-04-29T02:40:42.431Z,8.58
2023-04-29T02:42:45.353Z,8.66
2023-04-29T02:44:50.147Z,8.63
2023-04-29T02:46:53.297Z,8.56
2023-04-29T02:48:56.207Z,8.56
2023-04-29T02:50:59.194Z,8.62
2023-04-29T02:53:02.283Z,8.62
2023-04-29T02:55:06.311Z,8.56
2023-04-29T02:57:09.296Z,8.50
2023-04-29T02:59:12.457Z,8.57
2023-04-29T03:01:16.810Z,8.55
2023-04-29T03:03:20.227Z,8.60
2023-04-29T03:05:23.465Z,8.58
2023-04-29T03:07:26.586Z,8.56
2023-04-29T03:09:29.445Z,8.45
2023-04-29T03:11:33.143Z,8.51
2023-04-29T03:13:38.196Z,8.58
2023-04-29T03:15:44.626Z,8.57
2023-04-29T03:17:49.812Z,8.55
2023-04-29T03:19:54.828Z,8.58
2023-04-29T03:21:58.110Z,8.60
2023-04-29T03:24:01.090Z,8.54
2023-04-29T03:26:09.455Z,8.53
2023-04-29T03:28:13.332Z,8.56
2023-04-29T03:30:16.351Z,8.62
2023-04-29T03:32:25.460Z,8.68
2023-04-29T03:34:30.437Z,8.72
2023-04-29T03:36:48.140Z,8.79
2023-04-29T03:38:51.017Z,8.71
2023-04-29T03:40:54.305Z,8.70
2023-04-29T03:42:57.895Z,8.78
2023-04-29T03:45:01.235Z,8.95
2023-04-29T03:47:07.096Z,8.89
2023-04-29T03:49:10.257Z,8.86
2023-04-29T03:51:14.746Z,8.94
2023-04-29T03:53:18.857Z,9.02
2023-04-29T03:55:22.054Z,8.98
2023-04-29T03:57:25.030Z,8.98
2023-04-29T03:59:29.698Z,8.97
2023-04-29T04:01:32.733Z,9.11
2023-04-29T04:03:36.213Z,9.20
2023-04-29T04:05:39.415Z,9.22
2023-04-29T04:07:47.240Z,9.12
2023-04-29T04:10:09.780Z,9.18
2023-04-29T04:12:12.767Z,9.20
2023-04-29T04:14:15.968Z,9.17
2023-04-29T04:16:18.847Z,9.20
2023-04-29T04:18:21.963Z,9.19
2023-04-29T04:20:26.253Z,9.31
2023-04-29T04:22:30.029Z,9.25
2023-04-29T04:24:50.284Z,9.29
2023-04-29T04:26:53.215Z,9.34
2023-04-29T04:29:18.966Z,9.44
2023-04-29T04:31:34.855Z,9.41
2023-04-29T04:33:37.917Z,9.45
2023-04-29T04:35:40.898Z,9.57
2023-04-29T04:37:43.852Z,9.53
2023-04-29T04:39:47.550Z,9.53
2023-04-29T04:41:53.509Z,9.56
2023-04-29T04:43:56.892Z,9.57
2023-04-29T04:46:13.135Z,9.50
2023-04-29T04:48:24.320Z,9.67
2023-04-29T04:50:29.523Z,9.62
2023-04-29T04:52:32.624Z,9.59
2023-04-29T04:54:46.967Z,9.65
2023-04-29T04:56:55.980Z,9.72
2023-04-29T04:58:58.902Z,9.85
2023-04-29T05:01:02.589Z,9.78
2023-04-29T05:03:05.750Z,9.88
2023-04-29T05:05:09.530Z,9.86
2023-04-29T05:07:14.792Z,9.87
2023-04-29T05:09:43.691Z,9.94
2023-04-29T05:11:46.906Z,9.95
2023-04-29T05:13:54.323Z,9.83
2023-04-29T05:15:57.379Z,9.91
2023-04-29T05:18:04.857Z,9.94
2023-04-29T05:20:09.441Z,10.07
2023-04-29T05:22:12.642Z,9.97
2023-04-29T05:24:16.713Z,10.02
2023-04-29T05:26:20.461Z,10.05
2023-04-29T05:28:24.836Z,10.16
2023-04-29T05:30:30.282Z,10.24
2023-04-29T05:32:33.755Z,10.14
2023-04-29T05:34:37.070Z,10.31
2023-04-29T05:36:40.163Z,10.28
2023-04-29T05:38:45.602Z,10.40
2023-04-29T05:40:50.510Z,10.45
2023-04-29T05:43:11.889Z,10.56
2023-04-29T05:45:14.836Z,10.70
2023-04-29T05:47:19.864Z,10.66
2023-04-29T05:49:23.060Z,10.79
2023-04-29T05:51:26.440Z,10.78
2023-04-29T05:53:29.378Z,10.90
2023-04-29T05:55:32.569Z,10.91
2023-04-29T05:57:35.792Z,10.97
2023-04-29T05:59:39.259Z,11.12
2023-04-29T06:01:42.253Z,11.29
2023-04-29T06:03:47.004Z,11.44
2023-04-29T06:06:04.395Z,11.57
2023-04-29T06:08:23.912Z,11.72
2023-04-29T06:10:29.401Z,11.60
2023-04-29T06:12:32.620Z,11.66
2023-04-29T06:14:35.690Z,11.98
2023-04-29T06:16:40.433Z,11.99
2023-04-29T06:18:44.622Z,12.19
2023-04-29T06:20:51.304Z,12.57
2023-04-29T06:22:54.224Z,12.93
2023-04-29T06:24:57.123Z,13.32
2023-04-29T06:27:15.422Z,13.25
2023-04-29T06:29:18.434Z,12.90
2023-04-29T06:31:23.272Z,13.19
2023-04-29T06:33:28.652Z,13.31
2023-04-29T06:35:31.593Z,13.62
2023-04-29T06:37:45.258Z,13.15
2023-04-29T06:40:02.039Z,14.05
2023-04-29T06:42:34.505Z,13.86
2023-04-29T06:44:57.662Z,14.84
2023-04-29T06:47:21.711Z,14.78
2023-04-29T06:49:34.493Z,14.95
2023-04-29T06:51:38.418Z,14.94
2023-04-29T06:53:42.899Z,16.26
2023-04-29T06:55:46.719Z,16.54
2023-04-29T06:57:49.772Z,16.21
2023-04-29T06:59:53.124Z,17.36
2023-04-29T07:01:56.580Z,17.41
2023-04-29T07:03:59.749Z,17.30
2023-04-29T07:06:02.837Z,16.96
2023-04-29T07:08:06.362Z,17.85
2023-04-29T07:10:11.382Z,18.14
2023-04-29T07:12:14.281Z,16.78
2023-04-29T07:14:17.302Z,17.09
2023-04-29T07:16:26.847Z,17.60
2023-04-29T07:18:30.001Z,15.90
2023-04-29T07:20:33.074Z,16.77
2023-04-29T07:22:36.444Z,16.96
2023-04-29T07:24:39.411Z,16.99
2023-04-29T07:26:48.363Z,16.99
2023-04-29T07:28:53.073Z,16.60
2023-04-29T07:30:56.397Z,16.88
2023-04-29T07:32:59.299Z,17.70
2023-04-29T07:35:02.881Z,18.02
2023-04-29T07:37:06.644Z,18.36
2023-04-29T07:39:09.678Z,17.37
2023-04-29T07:41:14.239Z,17.18
2023-04-29T07:43:18.800Z,17.60
2023-04-29T07:45:21.750Z,17.21
2023-04-29T07:47:25.786Z,17.08
2023-04-29T07:49:28.669Z,16.67
2023-04-29T07:51:32.458Z,16.65
2023-04-29T07:53:35.484Z,16.31
2023-04-29T07:55:38.581Z,17.06
2023-04-29T07:57:42.046Z,17.58
2023-04-29T07:59:46.731Z,18.36
2023-04-29T08:01:49.659Z,19.00
2023-04-29T08:03:53.121Z,19.17
2023-04-29T08:06:02.493Z,19.21
2023-04-29T08:08:06.156Z,19.58
2023-04-29T08:10:10.102Z,18.49
2023-04-29T08:12:13.724Z,18.09
2023-04-29T08:14:16.924Z,18.30
2023-04-29T08:16:22.199Z,17.73
2023-04-29T08:18:25.598Z,18.29
2023-04-29T08:20:29.137Z,17.86
2023-04-29T08:22:32.150Z,17.92
2023-04-29T08:24:35.640Z,18.25
2023-04-29T08:26:40.180Z,17.98
2023-04-29T08:28:43.288Z,17.98
2023-04-29T08:30:46.370Z,17.80
2023-04-29T08:32:51.266Z,17.47
2023-04-29T08:34:54.629Z,17.47
2023-04-29T08:36:58.218Z,17.27
2023-04-29T08:39:01.349Z,16.47
2023-04-29T08:41:04.330Z,16.85
2023-04-29T08:43:07.579Z,16.59
2023-04-29T08:45:11.012Z,16.72
2023-04-29T08:47:15.090Z,16.49
2023-04-29T08:49:19.793Z,16.51
2023-04-29T08:51:22.711Z,16.63
2023-04-29T08:53:26.190Z,16.60
2023-04-29T08:55:29.069Z,16.52
2023-04-29T08:57:40.463Z,16.07
2023-04-29T08:59:43.961Z,16.27
2023-04-29T09:01:52.318Z,15.93
2023-04-29T09:04:05.915Z,15.93
2023-04-29T09:06:12.845Z,16.21
2023-04-29T09:08:17.384Z,16.29
2023-04-29T09:10:21.465Z,16.01
2023-04-29T09:12:24.468Z,15.62
2023-04-29T09:14:29.269Z,15.68
2023-04-29T09:16:32.132Z,15.51
2023-04-29T09:18:46.350Z,15.44
2023-04-29T09:20:49.269Z,15.27
2023-04-29T09:22:55.054Z,15.21
2023-04-29T09:25:13.021Z,15.19
2023-04-29T09:27:28.612Z,15.14
2023-04-29T09:29:33.313Z,14.99
2023-04-29T09:31:38.942Z,15.14
2023-04-29T09:33:51.919Z,15.04
2023-04-29T09:35:54.981Z,14.95
2023-04-29T09:38:11.372Z,14.84
2023-04-29T09:40:31.063Z,14.81
2023-04-29T09:42:43.611Z,14.79
2023-04-29T09:44:46.790Z,14.76
2023-04-29T09:46:57.462Z,14.63
2023-04-29T09:49:00.967Z,14.75
2023-04-29T09:51:04.429Z,14.87
2023-04-29T09:53:11.089Z,14.70
2023-04-29T09:55:16.252Z,14.69
2023-04-29T09:57:19.582Z,14.63
2023-04-29T09:59:23.961Z,14.20
2023-04-29T10:01:28.432Z,14.59
2023-04-29T10:03:37.613Z,14.43
2023-04-29T10:05:42.201Z,14.24
2023-04-29T10:07:48.529Z,14.41
2023-04-29T10:09:53.836Z,14.46
2023-04-29T10:11:56.991Z,14.25
2023-04-29T10:14:00.959Z,14.10
2023-04-29T10:16:11.856Z,13.95
2023-04-29T10:18:19.524Z,14.04
2023-04-29T10:20:25.030Z,13.98
2023-04-29T10:22:35.259Z,14.07
2023-04-29T10:24:39.600Z,13.49
2023-04-29T10:26:44.745Z,13.50
2023-04-29T10:28:52.079Z,13.40
2023-04-29T10:30:57.206Z,13.38
2023-04-29T10:33:02.756Z,13.06
2023-04-29T10:35:08.492Z,13.24
2023-04-29T10:37:11.860Z,13.16
2023-04-29T10:39:24.656Z,13.17
2023-04-29T10:41:30.665Z,13.25
2023-04-29T10:43:35.568Z,13.05
2023-04-29T10:45:39.878Z,12.80
2023-04-29T10:48:00.731Z,13.01
2023-04-29T10:50:04.947Z,12.85
2023-04-29T10:52:09.824Z,13.04
2023-04-29T10:54:15.399Z,13.06
2023-04-29T10:56:18.925Z,13.29
2023-04-29T10:58:44.900Z,13.24
2023-04-29T11:00:48.482Z,13.72
2023-04-29T11:02:51.960Z,13.79
2023-04-29T11:05:10.864Z,13.93
2023-04-29T11:07:31.484Z,13.88
2023-04-29T11:09:38.961Z,14.43
2023-04-29T11:11:44.497Z,14.95
2023-04-29T11:13:49.108Z,15.27
2023-04-29T11:15:52.810Z,15.79
2023-04-29T11:17:59.890Z,15.87
2023-04-29T11:20:08.988Z,16.25
2023-04-29T11:22:25.827Z,15.95
2023-04-29T11:24:30.122Z,16.11
2023-04-29T11:26:34.711Z,15.90
2023-04-29T11:28:38.689Z,16.13
2023-04-29T11:30:45.887Z,16.10
2023-04-29T11:32:52.183Z,16.15
2023-04-29T11:34:56.794Z,16.10
2023-04-29T11:37:00.744Z,15.79
2023-04-29T11:39:05.209Z,15.11
2023-04-29T11:41:09.442Z,15.86
2023-04-29T11:43:18.579Z,16.06
2023-04-29T11:45:21.925Z,15.90
2023-04-29T11:47:29.714Z,15.92
2023-04-29T11:49:34.042Z,15.96
2023-04-29T11:51:37.421Z,16.03
2023-04-29T11:53:40.705Z,16.23
2023-04-29T11:55:45.397Z,16.49
2023-04-29T11:57:52.775Z,16.75
2023-04-29T11:59:57.666Z,16.87
2023-04-29T12:02:01.421Z,16.73
2023-04-29T12:04:07.792Z,16.70
2023-04-29T12:06:11.342Z,16.68
2023-04-29T12:08:22.320Z,16.69
2023-04-29T12:10:26.999Z,16.58
2023-04-29T12:12:32.163Z,16.58
2023-04-29T12:14:35.565Z,16.83
2023-04-29T12:16:39.374Z,16.91
2023-04-29T12:18:43.872Z,16.81
2023-04-29T12:20:48.852Z,16.85
2023-04-29T12:22:51.799Z,16.08
2023-04-29T12:24:54.869Z,16.66
2023-04-29T12:27:00.129Z,16.67
2023-04-29T12:29:03.145Z,16.34
2023-04-29T12:31:06.297Z,16.47
2023-04-29T12:33:10.182Z,16.57
2023-04-29T12:35:19.606Z,16.31
2023-04-29T12:37:24.253Z,15.87
2023-04-29T12:39:27.454Z,16.01
2023-04-29T12:41:43.436Z,15.81
2023-04-29T12:43:46.846Z,15.89
2023-04-29T12:45:50.190Z,15.89
2023-04-29T12:47:54.236Z,15.92
2023-04-29T12:49:58.135Z,15.68
2023-04-29T12:52:01.097Z,15.66
2023-04-29T12:54:07.658Z,15.59
2023-04-29T12:56:13.544Z,15.35
2023-04-29T12:58:16.823Z,15.61
2023-04-29T13:00:21.133Z,15.51
2023-04-29T13:02:24.112Z,15.49
2023-04-29T13:04:27.128Z,15.65
2023-04-29T13:06:30.104Z,15.71
2023-04-29T13:08:33.081Z,15.61
2023-04-29T13:10:37.565Z,15.72
2023-04-29T13:12:40.563Z,15.71
2023-04-29T13:14:43.546Z,15.83
2023-04-29T13:16:46.517Z,15.82
2023-04-29T13:19:04.458Z,15.99
2023-04-29T13:21:12.446Z,16.09
2023-04-29T13:23:15.759Z,16.08
2023-04-29T13:25:18.774Z,16.12
2023-04-29T13:27:23.173Z,16.18
2023-04-29T13:29:27.482Z,16.24
2023-04-29T13:31:30.494Z,16.23
2023-04-29T13:33:36.508Z,16.24
2023-04-29T13:35:42.111Z,16.39
2023-04-29T13:37:45.178Z,16.21
2023-04-29T13:39:48.222Z,16.21
2023-04-29T13:41:51.921Z,16.21
2023-04-29T13:43:58.579Z,16.28
2023-04-29T13:46:02.542Z,16.25
2023-04-29T13:48:12.605Z,16.32
2023-04-29T13:51:10.690Z,16.33
2023-04-29T13:55:23.215Z,16.10
2023-04-29T13:58:12.459Z,15.89
2023-04-29T13:59:46.752Z,15.76
2023-04-29T14:04:00.063Z,15.50
2023-04-29T14:06:03.958Z,15.37
2023-04-29T14:08:07.085Z,15.31
2023-04-29T14:10:10.534Z,15.16
2023-04-29T14:12:13.417Z,15.18
2023-04-29T14:14:17.037Z,15.11
2023-04-29T14:16:21.541Z,15.06
2023-04-29T14:18:24.563Z,14.92
2023-04-29T14:20:27.450Z,14.91
2023-04-29T14:22:30.670Z,14.96
2023-04-29T14:24:33.537Z,14.99
2023-04-29T14:26:37.498Z,14.93
2023-04-29T14:28:40.709Z,14.85
2023-04-29T14:30:46.726Z,14.94
2023-04-29T14:32:51.505Z,14.98
2023-04-29T14:34:54.725Z,15.02
2023-04-29T14:36:59.476Z,15.11
2023-04-29T14:39:04.330Z,15.07
2023-04-29T14:41:07.899Z,14.95
2023-04-29T14:43:10.797Z,15.13
2023-04-29T14:45:14.004Z,15.14
2023-04-29T14:47:17.091Z,15.16
2023-04-29T14:49:21.484Z,15.09
2023-04-29T14:51:25.315Z,15.18
2023-04-29T14:53:28.155Z,15.28
2023-04-29T14:55:31.507Z,15.37
2023-04-29T14:57:34.883Z,15.45
2023-04-29T14:59:38.061Z,15.32
2023-04-29T15:01:41.166Z,15.10
2023-04-29T15:03:45.241Z,15.03
2023-04-29T15:05:51.128Z,15.13
2023-04-29T15:07:54.265Z,15.42
2023-04-29T15:09:57.150Z,15.40
2023-04-29T15:12:00.154Z,15.29
2023-04-29T15:14:02.987Z,15.41
2023-04-29T15:16:07.796Z,15.46
2023-04-29T15:18:11.262Z,15.10
2023-04-29T15:20:14.476Z,15.05
2023-04-29T15:22:18.877Z,15.14
2023-04-29T15:24:21.948Z,15.17
2023-04-29T15:26:24.868Z,15.12
2023-04-29T15:28:28.018Z,14.83
2023-04-29T15:30:30.940Z,14.87
2023-04-29T15:32:33.968Z,14.88
2023-04-29T15:34:36.967Z,14.73
2023-04-29T15:36:39.894Z,14.77
2023-04-29T15:38:44.233Z,14.50
2023-04-29T15:40:47.596Z,14.59
2023-04-29T15:42:50.683Z,14.55
2023-04-29T15:44:53.759Z,14.46
2023-04-29T15:46:56.794Z,14.38
2023-04-29T15:48:59.814Z,14.44
2023-04-29T15:51:03.027Z,14.43
2023-04-29T15:53:06.204Z,14.41
2023-04-29T15:55:10.796Z,14.46
2023-04-29T15:57:13.687Z,14.47
2023-04-29T15:59:16.618Z,14.47
2023-04-29T16:01:19.732Z,14.43
2023-04-29T16:03:22.922Z,14.42
2023-04-29T16:05:26.235Z,14.42
2023-04-29T16:07:29.194Z,14.38
2023-04-29T16:09:32.908Z,14.30
2023-04-29T16:11:37.418Z,14.20
2023-04-29T16:13:40.488Z,14.22
2023-04-29T16:15:43.398Z,14.21
2023-04-29T16:17:46.510Z,14.14
2023-04-29T16:19:49.931Z,14.11
2023-04-29T16:21:52.912Z,14.13
2023-04-29T16:23:55.808Z,14.10
2023-04-29T16:25:58.890Z,14.04
2023-04-29T16:28:03.422Z,14.04
2023-04-29T16:30:08.048Z,14.05
2023-04-29T16:32:11.524Z,13.99
2023-04-29T16:34:14.564Z,13.92
2023-04-29T16:36:17.669Z,13.94
2023-04-29T16:38:20.548Z,13.89
2023-04-29T16:40:24.656Z,13.87
2023-04-29T16:42:27.740Z,13.87
2023-04-29T16:44:32.269Z,13.82
2023-04-29T16:46:35.505Z,13.79
2023-04-29T16:48:38.610Z,13.71
2023-04-29T16:50:41.554Z,13.64
2023-04-29T16:52:45.224Z,13.74
2023-04-29T16:54:48.240Z,13.58
2023-04-29T16:56:51.434Z,13.55
2023-04-29T16:58:54.776Z,13.62
2023-04-29T17:00:59.265Z,13.65
2023-04-29T17:03:02.390Z,13.54
2023-04-29T17:05:07.081Z,13.59
2023-04-29T17:07:10.168Z,13.59
2023-04-29T17:09:13.129Z,13.57
2023-04-29T17:11:16.040Z,13.51
2023-04-29T17:13:19.197Z,13.51
2023-04-29T17:15:22.229Z,13.51
2023-04-29T17:17:26.698Z,13.49
2023-04-29T17:19:29.580Z,13.44
2023-04-29T17:21:32.829Z,13.38
2023-04-29T17:23:36.135Z,13.28
2023-04-29T17:25:39.324Z,13.27
2023-04-29T17:27:44.760Z,13.32
2023-04-29T17:29:47.826Z,13.33
2023-04-29T17:31:59.622Z,13.32
2023-04-29T17:34:18.710Z,13.22
2023-04-29T17:36:25.473Z,13.22
2023-04-29T17:38:28.554Z,13.19
2023-04-29T17:40:31.796Z,13.20
2023-04-29T17:42:34.778Z,13.18
2023-04-29T17:44:38.396Z,13.20
2023-04-29T17:46:41.921Z,13.18
2023-04-29T17:48:44.868Z,13.21
2023-04-29T17:50:49.213Z,13.19
2023-04-29T17:52:52.268Z,13.24
2023-04-29T17:54:55.456Z,13.23
2023-04-29T17:56:59.308Z,13.24
2023-04-29T17:59:02.656Z,13.22
2023-04-29T18:01:07.260Z,13.22
2023-04-29T18:03:10.539Z,13.26
2023-04-29T18:05:13.617Z,13.22
2023-04-29T18:07:18.007Z,13.20
2023-04-29T18:09:21.596Z,13.20
2023-04-29T18:11:25.429Z,13.22
2023-04-29T18:13:28.447Z,13.16
2023-04-29T18:15:31.368Z,13.19
2023-04-29T18:17:34.484Z,13.18
2023-04-29T18:19:37.339Z,13.05
2023-04-29T18:21:40.483Z,13.00
2023-04-29T18:23:44.675Z,13.03
2023-04-29T18:25:47.494Z,12.90
2023-04-29T18:45:48.539Z,12.28
2023-04-29T18:47:51.625Z,12.35
2023-04-29T18:52:38.757Z,12.18
2023-04-29T18:56:38.219Z,12.22
2023-04-29T18:58:42.615Z,12.19
2023-04-29T19:00:45.896Z,12.26
2023-04-29T19:02:49.315Z,12.28
2023-04-29T19:04:52.482Z,12.16
2023-04-29T19:06:55.430Z,12.12
2023-04-29T19:08:58.233Z,12.18
2023-04-29T19:11:01.863Z,12.15
2023-04-29T19:13:06.283Z,12.15
2023-04-29T19:15:10.074Z,12.16
2023-04-29T19:17:12.994Z,12.05
2023-04-29T19:19:16.033Z,12.02
2023-04-29T19:21:19.102Z,12.09
2023-04-29T19:23:22.595Z,12.07
2023-04-29T19:25:26.403Z,12.08
2023-04-29T19:27:29.595Z,12.04
2023-04-29T19:29:34.009Z,12.07
2023-04-29T19:31:37.116Z,11.97
2023-04-29T19:33:40.117Z,11.99
2023-04-29T19:35:43.196Z,11.89
2023-04-29T19:37:46.076Z,11.95
2023-04-29T19:39:49.760Z,11.87
2023-04-29T19:41:52.606Z,11.83
2023-04-29T19:43:55.653Z,11.77
2023-04-29T19:46:00.122Z,11.81
2023-04-29T19:48:03.366Z,11.78
2023-04-29T19:50:06.746Z,11.78
2023-04-29T19:52:09.646Z,11.79
2023-04-29T19:54:13.058Z,11.74
2023-04-29T19:56:16.672Z,11.61
2023-04-29T19:58:19.533Z,11.60
2023-04-29T20:00:22.730Z,11.64
2023-04-29T20:02:27.437Z,11.59
2023-04-29T20:04:30.401Z,11.54
2023-04-29T20:06:35.305Z,11.62
2023-04-29T20:08:38.398Z,11.59
2023-04-29T20:10:41.966Z,11.54
2023-04-29T20:12:44.980Z,11.50
2023-04-29T20:14:47.835Z,11.52
2023-04-29T20:16:53.576Z,11.46
2023-04-29T20:18:57.961Z,11.47
2023-04-29T20:21:00.877Z,11.47
2023-04-29T20:23:03.763Z,11.49
2023-04-29T20:25:07.839Z,11.53
2023-04-29T20:27:10.822Z,11.50
2023-04-29T20:29:13.865Z,11.51
2023-04-29T20:31:17.298Z,11.46
2023-04-29T20:33:20.291Z,11.42
2023-04-29T20:35:25.862Z,11.40
2023-04-29T20:37:28.735Z,11.38
2023-04-29T20:39:32.066Z,11.44
2023-04-29T20:41:35.723Z,11.36
2023-04-29T20:43:38.764Z,11.37
2023-04-29T20:45:41.798Z,11.36
2023-04-29T20:47:45.985Z,11.19
2023-04-29T20:49:49.856Z,11.23
2023-04-29T20:51:54.316Z,11.28
2023-04-29T20:53:57.246Z,11.25
2023-04-29T20:56:00.125Z,11.25
2023-04-29T20:58:03.062Z,11.26
2023-04-29T21:00:07.152Z,11.24
2023-04-29T21:02:10.441Z,11.16
2023-04-29T21:04:13.465Z,11.14
2023-04-29T21:06:18.597Z,11.18
2023-04-29T21:08:23.316Z,11.20
2023-04-29T21:10:26.190Z,11.08
2023-04-29T21:12:29.152Z,11.05
2023-04-29T21:14:32.335Z,10.99
2023-04-29T21:16:35.247Z,10.96
2023-04-29T21:18:38.273Z,11.03
2023-04-29T21:20:41.182Z,11.07
2023-04-29T21:22:45.317Z,11.01
2023-04-29T21:24:49.838Z,11.05
2023-04-29T21:26:52.807Z,11.05
2023-04-29T21:28:55.991Z,11.01
2023-04-29T21:30:59.116Z,11.00
2023-04-29T21:33:02.107Z,11.08
2023-04-29T21:35:05.709Z,11.02
2023-04-29T21:37:08.559Z,11.11
2023-04-29T21:39:12.163Z,11.01
2023-04-29T21:41:21.095Z,10.96
2023-04-29T21:43:24.073Z,10.96
2023-04-29T21:45:26.926Z,10.98
2023-04-29T21:47:30.509Z,10.98
2023-04-29T21:49:33.516Z,11.01
2023-04-29T21:51:36.652Z,10.99
2023-04-29T21:53:39.622Z,10.89
2023-04-29T21:55:42.595Z,10.90
2023-04-29T21:57:47.125Z,10.89
2023-04-29T21:59:51.424Z,10.95
2023-04-29T22:02:00.775Z,10.96
2023-04-29T22:04:03.767Z,10.96
2023-04-29T22:06:06.675Z,10.94
2023-04-29T22:08:09.725Z,10.83
2023-04-29T22:10:12.611Z,10.77
2023-04-29T22:12:16.424Z,10.92
2023-04-29T22:14:20.896Z,10.80
2023-04-29T22:16:24.083Z,10.76
2023-04-29T22:18:26.944Z,10.77
2023-04-29T22:20:29.914Z,10.77
2023-04-29T22:22:32.895Z,10.73
2023-04-29T22:24:35.925Z,10.81
2023-04-29T22:26:38.753Z,10.79
2023-04-29T22:28:42.122Z,10.77
2023-04-29T22:30:47.535Z,10.75
2023-04-29T22:32:50.112Z,10.66
2023-04-29T22:34:53.197Z,10.70
2023-04-29T22:36:56.232Z,10.75
2023-04-29T22:38:59.193Z,10.67
2023-04-29T22:41:02.194Z,10.71
2023-04-29T22:43:05.204Z,10.75
2023-04-29T22:45:10.186Z,10.71
2023-04-29T22:47:14.505Z,10.67
2023-04-29T22:49:17.434Z,10.61
2023-04-29T22:51:20.465Z,10.59
2023-04-29T22:53:24.017Z,10.61
2023-04-29T22:55:27.674Z,10.66
2023-04-29T22:57:30.837Z,10.67
2023-04-29T22:59:33.675Z,10.56
2023-04-29T23:01:36.999Z,10.67
2023-04-29T23:03:41.521Z,10.65
2023-04-29T23:05:44.479Z,10.66
2023-04-29T23:07:47.306Z,10.68
2023-04-29T23:09:51.294Z,10.63
2023-04-29T23:11:54.378Z,10.64
2023-04-29T23:13:57.916Z,10.61
2023-04-29T23:16:01.645Z,10.65
2023-04-29T23:18:04.791Z,10.61
2023-04-29T23:20:10.314Z,10.58
2023-04-29T23:22:13.245Z,10.51
2023-04-29T23:24:16.015Z,10.64
2023-04-29T23:26:19.017Z,10.58
2023-04-29T23:28:22.336Z,10.54
2023-04-29T23:30:25.679Z,10.54
2023-04-29T23:32:28.618Z,10.48
2023-04-29T23:34:31.570Z,10.53
2023-04-29T23:36:36.475Z,10.55
2023-04-29T23:38:39.399Z,10.52
2023-04-29T23:40:42.272Z,10.57
2023-04-29T23:42:45.228Z,10.50
2023-04-29T23:44:48.145Z,10.47
2023-04-29T23:46:51.076Z,10.49
2023-04-29T23:48:54.035Z,10.45
2023-04-29T23:50:56.955Z,10.42
2023-04-29T23:53:01.283Z,10.32
2023-04-29T23:55:04.867Z,10.40
2023-04-29T23:57:07.706Z,10.38
2023-04-29T23:59:10.660Z,10.43
